createdAt,value
2019-02-17T00:01:54.554Z,9.47
2019-02-17T00:04:26.344Z,8.88
2019-02-17T00:06:58.024Z,8.53
2019-02-17T00:09:29.756Z,9.57
2019-02-17T00:12:01.485Z,9.63
2019-02-17T00:14:32.861Z,11.53
2019-02-17T00:17:04.350Z,11.43
2019-02-17T00:19:35.645Z,10.17
2019-02-17T00:22:06.955Z,9.97
2019-02-17T00:24:38.715Z,9.27
2019-02-17T00:27:10.291Z,9.30
2019-02-17T00:29:42.281Z,10.63
2019-02-17T00:32:13.786Z,9.97
2019-02-17T00:34:45.515Z,10.23
2019-02-17T00:37:16.843Z,10.80
2019-02-17T00:39:48.810Z,10.13
2019-02-17T00:42:20.513Z,10.43
2019-02-17T00:44:51.907Z,10.53
2019-02-17T00:47:23.312Z,10.83
2019-02-17T00:49:54.623Z,10.63
2019-02-17T00:52:25.905Z,9.87
2019-02-17T00:54:57.929Z,10.87
2019-02-17T00:57:29.901Z,10.00
2019-02-17T01:00:01.795Z,10.73
2019-02-17T01:02:33.966Z,10.78
2019-02-17T01:05:05.563Z,10.58
2019-02-17T01:07:36.886Z,10.50
2019-02-17T01:10:08.510Z,10.80
2019-02-17T01:12:39.765Z,10.93
2019-02-17T01:15:11.712Z,11.20
2019-02-17T01:17:43.395Z,10.90
2019-02-17T01:20:15.011Z,11.67
2019-02-17T01:22:46.328Z,11.00
2019-02-17T01:25:18.994Z,10.97
2019-02-17T01:27:50.683Z,12.07
2019-02-17T01:30:23.140Z,10.72
2019-02-17T01:32:54.612Z,11.27
2019-02-17T01:35:26.211Z,11.53
2019-02-17T01:37:58.380Z,10.93
2019-02-17T01:40:30.023Z,11.10
2019-02-17T01:43:01.287Z,10.50
2019-02-17T01:45:32.839Z,11.13
2019-02-17T01:48:04.325Z,10.88
2019-02-17T01:50:35.687Z,12.25
2019-02-17T01:53:07.114Z,11.17
2019-02-17T01:55:38.513Z,11.75
2019-02-17T01:58:09.796Z,10.48
2019-02-17T02:00:41.273Z,11.77
2019-02-17T02:03:12.904Z,11.37
2019-02-17T02:05:44.777Z,11.20
2019-02-17T02:08:16.049Z,12.10
2019-02-17T02:10:47.363Z,11.50
2019-02-17T02:13:19.049Z,10.87
2019-02-17T02:15:51.023Z,12.30
2019-02-17T02:18:22.798Z,12.33
2019-02-17T02:20:55.066Z,11.50
2019-02-17T02:23:26.814Z,12.47
2019-02-17T02:25:58.671Z,11.53
2019-02-17T02:28:30.047Z,12.23
2019-02-17T02:31:01.946Z,13.10
2019-02-17T02:33:33.925Z,12.10
2019-02-17T02:36:05.318Z,12.77
2019-02-17T02:38:36.770Z,12.60
2019-02-17T02:41:08.127Z,12.13
2019-02-17T02:43:40.059Z,12.60
2019-02-17T02:46:11.716Z,12.43
2019-02-17T02:48:43.779Z,13.07
2019-02-17T02:51:15.007Z,12.00
2019-02-17T02:53:46.684Z,11.60
2019-02-17T02:56:18.629Z,12.20
2019-02-17T02:58:50.605Z,12.07
2019-02-17T03:01:22.496Z,12.07
2019-02-17T03:03:54.308Z,11.77
2019-02-17T03:06:57.088Z,11.60
2019-02-17T03:09:28.800Z,12.10
2019-02-17T03:12:00.869Z,11.85
2019-02-17T03:14:32.449Z,11.53
2019-02-17T03:17:04.144Z,11.80
2019-02-17T03:19:35.492Z,12.45
2019-02-17T03:22:06.841Z,11.67
2019-02-17T03:24:38.809Z,11.48
2019-02-17T03:27:10.994Z,11.80
2019-02-17T03:29:43.436Z,12.35
2019-02-17T03:32:15.374Z,11.68
2019-02-17T03:34:46.819Z,11.40
2019-02-17T03:37:18.409Z,11.57
2019-02-17T03:39:49.817Z,11.80
2019-02-17T03:42:21.099Z,11.63
2019-02-17T03:44:52.494Z,12.17
2019-02-17T03:47:24.769Z,12.40
2019-02-17T03:49:56.059Z,12.30
2019-02-17T03:52:27.642Z,12.87
2019-02-17T03:54:59.082Z,12.35
2019-02-17T03:57:30.381Z,11.77
2019-02-17T04:00:01.849Z,12.33
2019-02-17T04:02:33.709Z,10.47
2019-02-17T04:05:05.101Z,10.00
2019-02-17T04:07:37.128Z,10.20
2019-02-17T04:10:09.251Z,9.13
2019-02-17T04:12:40.748Z,9.18
2019-02-17T04:15:12.819Z,9.13
2019-02-17T04:17:44.171Z,9.00
2019-02-17T04:20:15.555Z,9.57
2019-02-17T04:22:46.883Z,9.90
2019-02-17T04:25:19.112Z,9.93
2019-02-17T04:27:52.624Z,10.13
2019-02-17T04:30:29.318Z,10.53
2019-02-17T04:32:59.028Z,9.55
2019-02-17T04:35:33.181Z,9.83
2019-02-17T04:38:04.836Z,9.10
2019-02-17T04:40:37.989Z,10.33
2019-02-17T04:43:10.054Z,10.67
2019-02-17T04:45:42.185Z,10.37
2019-02-17T04:48:13.809Z,9.57
2019-02-17T04:50:45.708Z,11.78
2019-02-17T04:53:17.013Z,11.60
2019-02-17T04:55:48.455Z,10.77
2019-02-17T04:58:20.115Z,10.17
2019-02-17T05:00:51.451Z,11.37
2019-02-17T05:03:22.812Z,11.93
2019-02-17T05:05:54.625Z,11.60
2019-02-17T05:08:25.934Z,11.05
2019-02-17T05:10:57.275Z,13.10
2019-02-17T05:13:28.571Z,11.50
2019-02-17T05:16:00.224Z,10.43
2019-02-17T05:18:31.989Z,10.83
2019-02-17T05:21:03.697Z,12.60
2019-02-17T05:23:35.264Z,11.68
2019-02-17T05:26:06.951Z,11.23
2019-02-17T05:28:38.861Z,10.60
2019-02-17T05:31:10.536Z,11.30
2019-02-17T05:33:42.255Z,10.70
2019-02-17T05:36:13.551Z,11.33
2019-02-17T05:38:45.702Z,11.20
2019-02-17T05:41:17.027Z,12.53
2019-02-17T05:43:48.342Z,11.47
2019-02-17T05:46:19.611Z,11.93
2019-02-17T05:48:51.335Z,11.40
2019-02-17T05:51:23.307Z,12.25
2019-02-17T05:53:54.932Z,14.33
2019-02-17T05:56:26.596Z,12.50
2019-02-17T05:58:57.918Z,12.07
2019-02-17T06:01:29.595Z,11.10
2019-02-17T06:04:00.957Z,11.53
2019-02-17T06:06:32.689Z,12.50
2019-02-17T06:09:05.728Z,11.25
2019-02-17T06:11:37.546Z,11.93
2019-02-17T06:14:09.273Z,10.67
2019-02-17T06:16:41.022Z,10.43
2019-02-17T06:19:12.672Z,10.27
2019-02-17T06:21:43.975Z,9.63
2019-02-17T06:24:15.318Z,9.83
2019-02-17T06:26:46.648Z,10.63
2019-02-17T06:29:18.467Z,10.50
2019-02-17T06:31:50.141Z,10.87
2019-02-17T06:34:21.504Z,9.60
2019-02-17T06:36:53.084Z,11.27
2019-02-17T06:39:24.648Z,11.37
2019-02-17T06:41:55.979Z,10.23
2019-02-17T06:44:27.950Z,9.68
2019-02-17T06:47:02.439Z,10.17
2019-02-17T06:49:33.918Z,9.60
2019-02-17T06:52:05.222Z,9.77
2019-02-17T06:54:37.033Z,9.93
2019-02-17T06:57:18.363Z,11.00
2019-02-17T06:59:51.580Z,13.20
2019-02-17T07:02:23.172Z,13.20
2019-02-17T07:05:13.323Z,15.10
2019-02-17T07:07:44.668Z,13.60
2019-02-17T07:10:16.168Z,14.03
2019-02-17T07:12:47.525Z,14.40
2019-02-17T07:15:18.846Z,13.73
2019-02-17T07:17:50.200Z,13.10
2019-02-17T07:20:21.970Z,12.83
2019-02-17T07:22:53.919Z,14.87
2019-02-17T07:25:30.032Z,13.67
2019-02-17T07:27:59.780Z,12.97
2019-02-17T07:30:31.368Z,15.47
2019-02-17T07:33:03.344Z,13.77
2019-02-17T07:35:36.005Z,15.03
2019-02-17T07:38:08.451Z,14.57
2019-02-17T07:40:40.056Z,15.63
2019-02-17T07:43:11.492Z,14.30
2019-02-17T07:45:43.063Z,14.07
2019-02-17T07:48:15.395Z,13.13
2019-02-17T07:50:47.724Z,13.63
2019-02-17T07:53:19.354Z,12.47
2019-02-17T07:55:50.568Z,12.30
2019-02-17T07:58:22.185Z,12.70
2019-02-17T08:00:53.504Z,11.70
2019-02-17T08:03:25.486Z,11.27
2019-02-17T08:05:57.098Z,11.53
2019-02-17T08:08:28.776Z,11.12
2019-02-17T08:11:03.990Z,10.43
2019-02-17T08:13:33.789Z,9.93
2019-02-17T08:16:05.023Z,10.27
2019-02-17T08:18:36.327Z,10.63
2019-02-17T08:21:08.979Z,10.50
2019-02-17T08:23:41.371Z,12.40
2019-02-17T08:26:13.315Z,15.40
2019-02-17T08:28:44.792Z,16.67
2019-02-17T08:31:16.213Z,15.45
2019-02-17T08:33:47.540Z,16.00
2019-02-17T08:36:19.222Z,13.60
2019-02-17T08:38:51.185Z,11.70
2019-02-17T08:41:23.112Z,12.97
2019-02-17T08:43:54.469Z,14.53
2019-02-17T08:46:26.318Z,10.45
2019-02-17T08:48:58.272Z,10.17
2019-02-17T08:51:30.355Z,10.58
2019-02-17T08:54:02.501Z,10.63
2019-02-17T08:56:34.275Z,10.20
2019-02-17T08:59:06.043Z,9.97
2019-02-17T09:01:37.661Z,10.80
2019-02-17T09:04:10.244Z,10.27
2019-02-17T09:06:42.754Z,9.80
2019-02-17T09:09:15.145Z,10.28
2019-02-17T09:11:47.222Z,11.43
2019-02-17T09:14:18.508Z,10.30
2019-02-17T09:16:49.804Z,9.98
2019-02-17T09:19:21.065Z,10.10
2019-02-17T09:21:52.501Z,9.47
2019-02-17T09:24:23.805Z,9.90
2019-02-17T09:26:55.828Z,10.00
2019-02-17T09:29:27.538Z,10.00
2019-02-17T09:31:59.504Z,9.83
2019-02-17T09:34:30.854Z,10.45
2019-02-17T09:37:02.223Z,11.07
2019-02-17T09:39:33.758Z,10.87
2019-02-17T09:42:05.226Z,10.70
2019-02-17T09:44:36.898Z,10.33
2019-02-17T09:47:08.719Z,10.47
2019-02-17T09:49:40.394Z,10.07
2019-02-17T09:52:12.500Z,9.87
2019-02-17T09:54:43.872Z,10.17
2019-02-17T09:57:15.181Z,10.57
2019-02-17T09:59:46.988Z,10.63
2019-02-17T10:02:26.269Z,9.67
2019-02-17T10:04:52.245Z,10.27
2019-02-17T10:07:23.956Z,10.37
2019-02-17T10:09:56.083Z,10.77
2019-02-17T10:12:27.758Z,10.77
2019-02-17T10:14:59.393Z,10.27
2019-02-17T10:17:31.039Z,11.00
2019-02-17T10:20:02.376Z,11.60
2019-02-17T10:22:34.362Z,10.67
2019-02-17T10:25:06.392Z,10.30
2019-02-17T10:27:38.795Z,11.63
2019-02-17T10:30:12.969Z,10.87
2019-02-17T10:32:44.548Z,10.53
2019-02-17T10:35:16.174Z,12.03
2019-02-17T10:37:48.228Z,11.97
2019-02-17T10:40:19.614Z,10.90
2019-02-17T10:42:50.904Z,11.40
2019-02-17T10:45:22.252Z,11.78
2019-02-17T10:47:53.507Z,11.20
2019-02-17T10:50:24.856Z,11.57
2019-02-17T10:52:57.922Z,11.55
2019-02-17T10:55:29.542Z,11.87
2019-02-17T10:58:01.195Z,12.20
2019-02-17T11:00:32.952Z,12.53
2019-02-17T11:03:10.391Z,12.27
2019-02-17T11:05:43.506Z,12.37
2019-02-17T11:08:14.911Z,11.13
2019-02-17T11:10:46.851Z,11.07
2019-02-17T11:13:18.450Z,12.43
2019-02-17T11:15:49.804Z,12.77
2019-02-17T11:18:21.108Z,11.93
2019-02-17T11:20:52.764Z,12.20
2019-02-17T11:23:24.420Z,12.07
2019-02-17T11:25:56.078Z,11.93
2019-02-17T11:28:27.749Z,12.73
2019-02-17T11:31:00.648Z,12.03
2019-02-17T11:33:31.992Z,12.33
2019-02-17T11:36:03.266Z,12.63
2019-02-17T11:38:34.711Z,13.43
2019-02-17T11:41:06.040Z,12.57
2019-02-17T11:43:37.764Z,13.57
2019-02-17T11:46:09.159Z,13.68
2019-02-17T11:48:41.104Z,15.23
2019-02-17T11:51:12.631Z,14.90
2019-02-17T11:53:44.028Z,13.53
2019-02-17T11:56:15.325Z,14.37
2019-02-17T11:58:46.619Z,12.98
2019-02-17T12:01:20.523Z,14.00
2019-02-17T12:03:53.982Z,13.73
2019-02-17T12:06:26.300Z,13.13
2019-02-17T12:08:57.607Z,12.93
2019-02-17T12:11:29.703Z,12.88
2019-02-17T12:14:01.355Z,13.03
2019-02-17T12:16:37.009Z,13.33
2019-02-17T12:19:06.523Z,12.83
2019-02-17T12:22:12.635Z,13.23
2019-02-17T12:25:00.739Z,13.40
2019-02-17T12:27:37.759Z,13.50
2019-02-17T12:30:14.169Z,12.57
2019-02-17T12:32:46.860Z,12.63
2019-02-17T12:35:18.615Z,12.70
2019-02-17T12:37:50.275Z,13.17
2019-02-17T12:40:21.596Z,13.28
2019-02-17T12:42:53.637Z,12.88
2019-02-17T12:45:25.250Z,13.55
2019-02-17T12:47:58.405Z,13.08
2019-02-17T12:50:30.476Z,12.95
2019-02-17T12:53:02.451Z,13.40
2019-02-17T12:55:33.759Z,13.50
2019-02-17T12:58:05.772Z,13.22
2019-02-17T13:00:38.385Z,14.10
2019-02-17T13:03:09.798Z,12.73
2019-02-17T13:05:41.353Z,12.67
2019-02-17T13:08:13.253Z,12.93
2019-02-17T13:10:44.832Z,13.40
2019-02-17T13:13:16.217Z,13.03
2019-02-17T13:15:49.289Z,13.70
2019-02-17T13:18:21.445Z,13.47
2019-02-17T13:20:53.856Z,13.20
2019-02-17T13:23:25.598Z,12.50
2019-02-17T13:32:48.334Z,15.20
2019-02-17T13:35:20.749Z,14.03
2019-02-17T13:37:52.468Z,12.90
2019-02-17T13:40:23.862Z,12.93
2019-02-17T13:42:55.206Z,13.43
2019-02-17T13:45:27.174Z,12.43
2019-02-17T13:47:58.811Z,12.70
2019-02-17T13:50:30.504Z,13.23
2019-02-17T13:53:11.425Z,13.43
2019-02-17T13:55:36.354Z,13.03
2019-02-17T13:58:08.778Z,13.10
2019-02-17T14:00:40.921Z,12.90
2019-02-17T14:03:12.399Z,13.77
2019-02-17T14:05:46.252Z,13.33
2019-02-17T14:08:18.190Z,12.23
2019-02-17T14:10:49.898Z,12.63
2019-02-17T14:13:21.215Z,13.10
2019-02-17T14:15:52.818Z,12.45
2019-02-17T14:18:24.286Z,13.00
2019-02-17T14:20:56.255Z,12.80
2019-02-17T14:23:27.614Z,11.67
2019-02-17T14:25:59.036Z,12.80
2019-02-17T14:28:30.415Z,11.68
2019-02-17T14:31:02.789Z,11.63
2019-02-17T14:33:34.580Z,12.07
2019-02-17T14:36:05.888Z,12.50
2019-02-17T14:38:37.280Z,12.85
2019-02-17T14:41:08.788Z,12.77
2019-02-17T14:43:40.442Z,12.47
2019-02-17T14:46:11.757Z,11.80
2019-02-17T14:48:43.814Z,12.17
2019-02-17T14:51:15.126Z,12.00
2019-02-17T14:53:46.506Z,11.73
2019-02-17T14:56:18.264Z,12.23
2019-02-17T14:58:50.519Z,11.40
2019-02-17T15:01:22.227Z,12.13
2019-02-17T15:03:53.631Z,12.43
2019-02-17T15:06:25.016Z,11.73
2019-02-17T15:08:56.363Z,11.40
2019-02-17T15:11:27.701Z,10.63
2019-02-17T15:13:59.016Z,11.20
2019-02-17T15:16:30.836Z,10.43
2019-02-17T15:19:02.548Z,11.08
2019-02-17T15:21:34.341Z,12.17
2019-02-17T15:24:07.871Z,10.90
2019-02-17T15:26:39.154Z,11.07
2019-02-17T15:29:11.389Z,10.70
2019-02-17T15:31:43.352Z,11.13
2019-02-17T15:34:18.747Z,11.37
2019-02-17T15:36:48.365Z,12.20
2019-02-17T15:39:19.632Z,12.10
2019-02-17T15:41:51.724Z,11.63
2019-02-17T15:44:23.051Z,12.70
2019-02-17T15:46:54.947Z,12.47
2019-02-17T15:49:26.251Z,12.20
2019-02-17T15:51:58.548Z,12.88
2019-02-17T15:54:29.920Z,12.13
2019-02-17T15:57:01.423Z,12.83
2019-02-17T15:59:33.170Z,12.80
2019-02-17T16:02:05.234Z,12.45
2019-02-17T16:04:37.112Z,12.73
2019-02-17T16:07:09.249Z,13.17
2019-02-17T16:09:41.002Z,12.57
2019-02-17T16:12:12.671Z,13.15
2019-02-17T16:14:44.200Z,14.43
2019-02-17T16:17:15.818Z,14.13
2019-02-17T16:19:47.892Z,13.77
2019-02-17T16:22:19.224Z,13.40
2019-02-17T16:24:50.565Z,13.67
2019-02-17T16:27:22.232Z,13.43
2019-02-17T16:29:53.870Z,13.67
2019-02-17T16:32:25.289Z,13.80
2019-02-17T16:34:56.628Z,14.50
2019-02-17T16:37:27.924Z,14.77
2019-02-17T16:39:59.229Z,14.00
2019-02-17T16:42:30.922Z,13.50
2019-02-17T16:45:02.194Z,14.53
2019-02-17T16:47:33.874Z,15.00
2019-02-17T16:50:05.733Z,16.43
2019-02-17T16:52:37.379Z,15.43
2019-02-17T16:55:10.502Z,15.80
2019-02-17T16:57:41.891Z,15.27
2019-02-17T17:00:18.965Z,13.75
2019-02-17T17:02:50.709Z,14.07
2019-02-17T17:05:22.673Z,14.47
2019-02-17T17:07:54.040Z,18.80
2019-02-17T17:10:25.975Z,17.13
2019-02-17T17:12:57.292Z,15.63
2019-02-17T17:15:28.949Z,17.67
2019-02-17T17:18:00.549Z,15.33
2019-02-17T17:20:31.878Z,14.93
2019-02-17T17:23:05.124Z,15.23
2019-02-17T17:25:36.870Z,15.53
2019-02-17T17:28:08.591Z,15.80
2019-02-17T17:30:39.953Z,14.80
2019-02-17T17:33:11.439Z,15.47
2019-02-17T17:35:43.539Z,15.73
2019-02-17T17:38:15.743Z,16.03
2019-02-17T17:40:47.071Z,16.27
2019-02-17T17:43:18.928Z,16.27
2019-02-17T17:45:50.633Z,16.33
2019-02-17T17:48:22.292Z,16.37
2019-02-17T17:50:54.015Z,15.93
2019-02-17T17:53:25.688Z,16.87
2019-02-17T17:55:57.008Z,16.47
2019-02-17T17:58:29.013Z,18.47
2019-02-17T18:01:00.377Z,18.03
2019-02-17T18:03:32.797Z,19.63
2019-02-17T18:06:04.221Z,18.83
2019-02-17T18:08:35.885Z,20.37
2019-02-17T18:11:08.474Z,20.40
2019-02-17T18:13:40.474Z,17.67
2019-02-17T18:16:12.323Z,17.60
2019-02-17T18:18:44.547Z,18.85
2019-02-17T18:21:16.216Z,19.03
2019-02-17T18:23:48.032Z,19.63
2019-02-17T18:26:19.372Z,17.98
2019-02-17T18:28:50.855Z,17.87
2019-02-17T18:31:22.176Z,17.63
2019-02-17T18:33:53.480Z,18.77
2019-02-17T18:36:25.141Z,18.50
2019-02-17T18:38:58.035Z,19.60
2019-02-17T18:41:29.337Z,19.77
2019-02-17T18:44:02.462Z,18.83
2019-02-17T18:46:33.830Z,19.40
2019-02-17T18:49:05.830Z,17.60
2019-02-17T18:51:37.786Z,19.70
2019-02-17T18:54:09.499Z,20.30
2019-02-17T18:56:41.147Z,19.17
2019-02-17T18:59:13.067Z,20.17
2019-02-17T19:01:46.749Z,20.10
2019-02-17T19:04:18.867Z,19.87
2019-02-17T19:06:50.248Z,21.40
2019-02-17T19:09:21.972Z,21.37
2019-02-17T19:11:56.909Z,20.72
2019-02-17T19:14:28.256Z,19.50
2019-02-17T19:16:59.714Z,21.07
2019-02-17T19:19:31.344Z,21.40
2019-02-17T19:22:02.675Z,22.00
2019-02-17T19:24:34.025Z,21.67
2019-02-17T19:27:05.337Z,23.83
2019-02-17T19:29:36.810Z,22.83
2019-02-17T19:32:08.835Z,24.47
2019-02-17T19:34:40.448Z,25.97
2019-02-17T19:37:12.262Z,29.33
2019-02-17T19:39:43.911Z,29.17
2019-02-17T19:42:15.316Z,29.10
2019-02-17T19:44:47.072Z,29.50
2019-02-17T19:47:18.575Z,28.07
2019-02-17T19:49:49.884Z,25.17
2019-02-17T19:52:21.549Z,26.13
2019-02-17T19:54:53.242Z,30.52
2019-02-17T19:57:25.502Z,26.47
2019-02-17T19:59:56.926Z,25.07
2019-02-17T20:02:47.015Z,23.97
2019-02-17T20:05:20.482Z,25.23
2019-02-17T20:07:52.883Z,26.47
2019-02-17T20:10:24.635Z,24.20
2019-02-17T20:12:55.992Z,26.20
2019-02-17T20:15:29.907Z,27.00
2019-02-17T20:18:01.616Z,24.87
2019-02-17T20:20:33.458Z,24.93
2019-02-17T20:23:05.140Z,23.98
2019-02-17T20:25:36.884Z,23.73
2019-02-17T20:28:08.439Z,24.87
2019-02-17T20:30:39.780Z,22.17
2019-02-17T20:33:11.074Z,23.27
2019-02-17T20:35:43.776Z,24.00
2019-02-17T20:38:15.405Z,21.93
2019-02-17T20:40:47.065Z,22.73
2019-02-17T20:43:18.403Z,22.97
2019-02-17T20:45:50.020Z,25.70
2019-02-17T20:48:21.430Z,24.83
2019-02-17T20:50:52.787Z,24.23
2019-02-17T20:53:24.162Z,22.70
2019-02-17T20:55:55.429Z,21.77
2019-02-17T20:58:27.227Z,21.50
2019-02-17T21:00:58.899Z,21.70
2019-02-17T21:03:30.192Z,23.12
2019-02-17T21:06:01.635Z,21.80
2019-02-17T21:08:33.308Z,21.97
2019-02-17T21:11:05.152Z,23.50
2019-02-17T21:13:36.910Z,22.93
2019-02-17T21:19:00.289Z,23.60
2019-02-17T21:21:31.783Z,23.85
2019-02-17T21:24:03.432Z,22.97
2019-02-17T21:26:34.911Z,25.47
2019-02-17T21:29:06.627Z,25.73
2019-02-17T21:31:37.921Z,24.90
2019-02-17T21:34:09.361Z,25.53
2019-02-17T21:36:40.991Z,25.80
2019-02-17T21:39:12.294Z,26.73
2019-02-17T21:41:43.939Z,26.57
2019-02-17T21:44:16.685Z,27.80
2019-02-17T21:46:48.356Z,24.87
2019-02-17T21:49:19.706Z,24.37
2019-02-17T21:51:51.049Z,25.13
2019-02-17T21:54:22.397Z,24.53
2019-02-17T21:56:54.122Z,24.13
2019-02-17T21:59:25.417Z,25.82
2019-02-17T22:01:57.093Z,25.93
2019-02-17T22:04:28.767Z,24.37
2019-02-17T22:07:00.134Z,26.13
2019-02-17T22:09:31.434Z,26.03
2019-02-17T22:12:03.142Z,23.77
2019-02-17T22:14:34.571Z,26.97
2019-02-17T22:17:05.879Z,26.80
2019-02-17T22:19:37.607Z,24.87
2019-02-17T22:22:11.695Z,25.00
2019-02-17T22:24:42.747Z,23.80
2019-02-17T22:27:14.072Z,24.87
2019-02-17T22:29:45.377Z,31.07
2019-02-17T22:32:16.753Z,31.37
2019-02-17T22:34:48.825Z,33.13
2019-02-17T22:37:20.294Z,32.07
2019-02-17T22:39:51.852Z,34.48
2019-02-17T22:42:23.776Z,32.93
2019-02-17T22:44:55.962Z,34.20
2019-02-17T22:47:27.838Z,32.33
2019-02-17T22:49:59.163Z,31.37
2019-02-17T22:52:30.553Z,28.73
2019-02-17T22:55:02.515Z,29.87
2019-02-17T22:57:40.592Z,27.90
2019-02-17T23:00:41.077Z,28.85
2019-02-17T23:03:15.349Z,28.80
2019-02-17T23:05:47.106Z,27.75
2019-02-17T23:08:18.876Z,29.60
2019-02-17T23:10:50.281Z,29.47
2019-02-17T23:13:22.684Z,29.90
2019-02-17T23:15:54.305Z,29.00
2019-02-17T23:18:25.637Z,30.43
2019-02-17T23:20:59.326Z,31.03
2019-02-17T23:23:32.010Z,33.67
2019-02-17T23:26:03.335Z,32.60
2019-02-17T23:28:38.878Z,33.63
2019-02-17T23:31:10.543Z,30.37
2019-02-17T23:33:43.531Z,29.60
2019-02-17T23:36:20.110Z,30.47
2019-02-17T23:38:54.137Z,28.27
2019-02-17T23:41:28.275Z,29.77
2019-02-17T23:44:00.932Z,28.13
2019-02-17T23:46:32.876Z,28.03
2019-02-17T23:49:04.828Z,30.62
2019-02-17T23:51:36.596Z,29.73
2019-02-17T23:54:07.874Z,26.43
2019-02-17T23:56:39.235Z,27.27
2019-02-17T23:59:10.914Z,23.60
